Terminal Aerodrome Forecast
Issued by NWS Blacksburg, VA

Current Version | Previous Version | Text Only | Print | Product List | Glossary On
Versions: 1 2 3 4 5 6 7 8 9 10 11 12 13 14 15 16 17 18 19 20 21 22 23 24 25
000
FTUS41 KRNK 200928 AAE
TAFDAN
TAF AMD
KDAN 200928Z 2009/2106 23003KT 4SM BR SCT002
      TEMPO 2010/2012 1/2SM FG VV001
     FM201500 27005KT P6SM SCT100
     FM202200 VRB03KT P6SM SCT060=

USA.gov is the U.S. government's official web portal to all federal, state and local government web resources and services.